createdAt,value
2023-04-20T00:02:47.800Z,48.5
2023-04-20T00:04:31.342Z,48.6
2023-04-20T00:06:14.625Z,48.6
2023-04-20T00:07:58.077Z,48.5
2023-04-20T00:09:41.347Z,48.5
2023-04-20T00:11:24.751Z,48.5
2023-04-20T00:13:08.179Z,48.5
2023-04-20T00:14:51.583Z,48.5
2023-04-20T00:20:00.762Z,48.4
2023-04-20T00:21:44.169Z,48.4
2023-04-20T00:23:27.566Z,48.5
2023-04-20T00:25:10.960Z,48.4
2023-04-20T00:26:54.366Z,48.4
2023-04-20T00:28:37.767Z,48.4
2023-04-20T00:30:21.144Z,48.4
2023-04-20T00:32:04.554Z,48.4
2023-04-20T00:33:47.934Z,48.3
2023-04-20T00:37:14.412Z,48.4
2023-04-20T00:38:57.800Z,48.4
2023-04-20T00:40:41.200Z,48.4
2023-04-20T00:42:24.624Z,48.3
2023-04-20T00:44:07.982Z,48.3
2023-04-20T00:45:51.396Z,48.3
2023-04-20T00:47:34.795Z,48.3
2023-04-20T00:49:18.173Z,48.2
2023-04-20T00:54:27.414Z,48.2
2023-04-20T00:56:10.832Z,48.2
2023-04-20T00:57:54.212Z,48.1
2023-04-20T00:59:37.645Z,48.1
2023-04-20T01:01:21.017Z,48
2023-04-20T01:03:04.413Z,48.1
2023-04-20T01:04:47.812Z,48.1
2023-04-20T01:06:31.190Z,48.1
2023-04-20T01:08:14.591Z,48.1
2023-04-20T01:09:58.286Z,48
2023-04-20T01:11:41.694Z,48.1
2023-04-20T01:13:25.077Z,48
2023-04-20T01:15:08.474Z,47.9
2023-04-20T01:16:51.879Z,48
2023-04-20T01:18:35.279Z,48
2023-04-20T01:20:18.735Z,47.9
2023-04-20T01:22:02.069Z,47.8
2023-04-20T01:27:11.358Z,47.8
2023-04-20T01:28:54.716Z,47.9
2023-04-20T01:30:38.087Z,47.8
2023-04-20T01:32:21.682Z,47.8
2023-04-20T01:34:04.929Z,47.8
2023-04-20T01:35:48.357Z,47.8
2023-04-20T01:37:31.727Z,47.8
2023-04-20T01:39:15.146Z,47.8
2023-04-20T01:40:58.815Z,47.8
2023-04-20T01:42:42.224Z,47.8
2023-04-20T01:44:25.596Z,47.6
2023-04-20T01:46:09.064Z,47.8
2023-04-20T01:47:52.415Z,47.7
2023-04-20T01:49:35.806Z,47.7
2023-04-20T01:51:19.177Z,47.6
2023-04-20T01:53:02.605Z,47.5
2023-04-20T01:54:45.949Z,47.5
2023-04-20T01:56:29.660Z,47.6
2023-04-20T01:58:13.057Z,47.6
2023-04-20T01:59:56.451Z,47.5
2023-04-20T02:01:39.859Z,47.5
2023-04-20T02:03:23.250Z,47.5
2023-04-20T02:05:06.660Z,47.4
2023-04-20T02:06:50.056Z,47.4
2023-04-20T02:08:33.430Z,47.4
2023-04-20T02:13:42.673Z,47.3
2023-04-20T02:15:26.064Z,47.4
2023-04-20T02:17:09.473Z,47.4
2023-04-20T02:18:52.865Z,47.3
2023-04-20T02:20:36.246Z,47.3
2023-04-20T02:22:19.655Z,47.3
2023-04-20T02:24:03.069Z,47.4
2023-04-20T02:25:46.467Z,47.4
2023-04-20T02:27:29.831Z,47.3
2023-04-20T02:29:13.532Z,47.3
2023-04-20T02:30:56.936Z,47.3
2023-04-20T02:32:40.329Z,47.3
2023-04-20T02:34:23.746Z,47.3
2023-04-20T02:36:07.134Z,47.3
2023-04-20T02:37:50.526Z,47.2
2023-04-20T02:39:33.928Z,47.2
2023-04-20T02:41:17.361Z,47.3
2023-04-20T02:43:00.731Z,47.2
2023-04-20T02:44:44.429Z,47.2
2023-04-20T02:46:27.822Z,47.1
2023-04-20T02:48:11.221Z,47.2
2023-04-20T02:49:54.617Z,47.2
2023-04-20T02:51:38.035Z,47
2023-04-20T02:53:21.399Z,47
2023-04-20T02:55:04.784Z,47
2023-04-20T02:56:48.204Z,47.1
2023-04-20T03:01:57.464Z,47
2023-04-20T03:03:40.838Z,47.1
2023-04-20T03:05:24.223Z,47.1
2023-04-20T03:07:07.643Z,47.1
2023-04-20T03:08:51.012Z,47
2023-04-20T03:10:34.429Z,47
2023-04-20T03:12:17.868Z,46.9
2023-04-20T03:14:01.224Z,46.9
2023-04-20T03:19:10.467Z,46.9
2023-04-20T03:20:53.845Z,46.9
2023-04-20T03:22:37.252Z,46.9
2023-04-20T03:24:20.639Z,46.9
2023-04-20T03:26:04.014Z,46.9
2023-04-20T03:27:47.443Z,46.9
2023-04-20T03:29:30.870Z,46.9
2023-04-20T03:31:14.348Z,46.9
2023-04-20T03:34:40.710Z,46.8
2023-04-20T03:36:24.110Z,47
2023-04-20T03:38:07.504Z,46.9
2023-04-20T03:39:50.896Z,46.8
2023-04-20T03:41:34.266Z,46.8
2023-04-20T03:43:17.664Z,46.8
2023-04-20T03:45:01.065Z,46.6
2023-04-20T03:46:44.465Z,46.7
2023-04-20T03:50:10.942Z,46.8
2023-04-20T03:51:54.345Z,46.7
2023-04-20T03:53:37.723Z,46.7
2023-04-20T03:55:21.122Z,46.7
2023-04-20T03:57:04.526Z,46.7
2023-04-20T03:58:47.929Z,46.7
2023-04-20T04:00:31.313Z,46.7
2023-04-20T04:02:14.731Z,46.9
2023-04-20T04:07:23.938Z,46.8
2023-04-20T04:09:07.363Z,46.7
2023-04-20T04:10:50.732Z,46.6
2023-04-20T04:12:34.200Z,46.7
2023-04-20T04:14:17.536Z,46.7
2023-04-20T04:16:00.934Z,46.8
2023-04-20T04:17:44.334Z,46.7
2023-04-20T04:19:27.716Z,46.6
2023-04-20T04:24:36.968Z,46.7
2023-04-20T04:26:20.382Z,46.7
2023-04-20T04:28:03.758Z,46.7
2023-04-20T04:29:47.162Z,46.7
2023-04-20T04:31:30.537Z,46.7
2023-04-20T04:33:13.967Z,46.6
2023-04-20T04:34:57.348Z,46.7
2023-04-20T04:36:40.757Z,46.8
2023-04-20T04:40:07.241Z,46.6
2023-04-20T04:41:50.634Z,46.6
2023-04-20T04:43:34.065Z,46.5
2023-04-20T04:45:17.417Z,46.5
2023-04-20T04:47:00.803Z,46.5
2023-04-20T04:48:44.236Z,46.6
2023-04-20T04:50:27.581Z,46.5
2023-04-20T04:52:10.985Z,46.6
2023-04-20T04:53:54.682Z,46.8
2023-04-20T04:55:38.154Z,46.6
2023-04-20T04:57:21.478Z,46.5
2023-04-20T04:59:04.938Z,46.4
2023-04-20T05:00:48.291Z,46.5
2023-04-20T05:02:31.675Z,46.4
2023-04-20T05:04:15.065Z,46.5
2023-04-20T05:05:58.489Z,46.6
2023-04-20T05:09:24.927Z,46.5
2023-04-20T05:11:08.318Z,46.6
2023-04-20T05:12:51.743Z,46.6
2023-04-20T05:14:35.123Z,46.6
2023-04-20T05:16:18.509Z,46.6
2023-04-20T05:18:01.903Z,46.6
2023-04-20T05:19:45.306Z,46.5
2023-04-20T05:21:28.712Z,46.6
2023-04-20T05:26:38.000Z,46.5
2023-04-20T05:28:21.387Z,46.7
2023-04-20T05:30:04.788Z,46.7
2023-04-20T05:31:48.151Z,47
2023-04-20T05:33:31.621Z,47.1
2023-04-20T05:35:14.949Z,47.1
2023-04-20T05:36:58.354Z,46.9
2023-04-20T05:38:41.733Z,47
2023-04-20T05:43:50.947Z,46.8
2023-04-20T05:45:34.356Z,46.8
2023-04-20T05:47:17.779Z,47.1
2023-04-20T05:49:01.163Z,47.1
2023-04-20T05:50:44.559Z,46.9
2023-04-20T05:52:27.934Z,46.6
2023-04-20T05:54:11.343Z,46.9
2023-04-20T05:55:54.779Z,47
2023-04-20T06:01:03.964Z,46.9
2023-04-20T06:02:47.416Z,46.9
2023-04-20T06:04:30.775Z,47.1
2023-04-20T06:06:14.199Z,47.2
2023-04-20T06:07:57.548Z,47.1
2023-04-20T06:09:41.048Z,47
2023-04-20T06:11:24.393Z,46.9
2023-04-20T06:13:07.756Z,46.9
2023-04-20T06:18:16.992Z,46.7
2023-04-20T06:20:00.379Z,46.6
2023-04-20T06:21:43.835Z,46.8
2023-04-20T06:23:27.221Z,46.9
2023-04-20T06:25:10.627Z,46.7
2023-04-20T06:26:54.007Z,46.8
2023-04-20T06:28:37.460Z,46.8
2023-04-20T06:30:20.802Z,46.7
2023-04-20T06:35:30.052Z,46.7
2023-04-20T06:37:13.479Z,46.5
2023-04-20T06:38:56.894Z,46.3
2023-04-20T06:40:40.211Z,46.6
2023-04-20T06:42:23.601Z,46.7
2023-04-20T06:44:06.969Z,46.4
2023-04-20T06:45:50.371Z,46.6
2023-04-20T06:47:33.786Z,46.5
2023-04-20T06:49:17.152Z,46.8
2023-04-20T06:54:27.027Z,46.7
2023-04-20T06:56:10.469Z,46.9
2023-04-20T06:57:53.903Z,47
2023-04-20T06:59:37.211Z,47
2023-04-20T07:01:20.637Z,46.9
2023-04-20T07:03:04.021Z,47
2023-04-20T07:04:47.411Z,47
2023-04-20T07:08:13.900Z,47.1
2023-04-20T07:09:57.276Z,47.1
2023-04-20T07:11:40.721Z,47.1
2023-04-20T07:13:24.063Z,47.1
2023-04-20T07:15:07.473Z,47.1
2023-04-20T07:16:50.861Z,47
2023-04-20T07:18:34.267Z,46.9
2023-04-20T07:20:17.675Z,46.9
2023-04-20T07:23:44.119Z,47
2023-04-20T07:25:27.539Z,46.7
2023-04-20T07:27:10.920Z,42.5
2023-04-20T07:28:54.339Z,39.7
2023-04-20T07:30:37.718Z,39.9
2023-04-20T07:32:21.121Z,40.3
2023-04-20T07:34:04.498Z,40.6
2023-04-20T07:35:47.921Z,40.7
2023-04-20T07:40:57.155Z,41.1
2023-04-20T07:42:40.557Z,41.2
2023-04-20T07:44:23.922Z,41.4
2023-04-20T07:46:07.358Z,41.6
2023-04-20T07:47:50.775Z,41.8
2023-04-20T07:49:34.196Z,42
2023-04-20T07:51:17.535Z,41.9
2023-04-20T07:53:00.915Z,42
2023-04-20T07:56:27.496Z,42.5
2023-04-20T07:58:10.951Z,42.5
2023-04-20T07:59:54.190Z,42.8
2023-04-20T08:01:37.580Z,42.8
2023-04-20T08:03:20.962Z,42.8
2023-04-20T08:05:04.445Z,42.9
2023-04-20T08:06:47.763Z,43
2023-04-20T08:08:31.166Z,43
2023-04-20T08:13:40.441Z,43.4
2023-04-20T08:15:23.981Z,43.4
2023-04-20T08:17:07.428Z,43.5
2023-04-20T08:18:50.757Z,43.6
2023-04-20T08:20:33.996Z,43.7
2023-04-20T08:22:17.439Z,43.8
2023-04-20T08:24:00.923Z,43.7
2023-04-20T08:25:44.312Z,43.7
2023-04-20T08:30:54.085Z,44.4
2023-04-20T08:32:37.631Z,44.6
2023-04-20T08:34:20.852Z,44.6
2023-04-20T08:36:04.252Z,44.5
2023-04-20T08:37:47.641Z,44.7
2023-04-20T08:39:31.016Z,45
2023-04-20T08:41:14.418Z,45.1
2023-04-20T08:44:40.901Z,45
2023-04-20T08:46:24.281Z,45
2023-04-20T08:48:07.695Z,45.1
2023-04-20T08:49:51.074Z,45.1
2023-04-20T08:51:34.487Z,45.3
2023-04-20T08:53:17.867Z,45.2
2023-04-20T08:55:01.273Z,45
2023-04-20T08:56:44.668Z,45
2023-04-20T08:58:28.061Z,44.9
2023-04-20T09:00:11.774Z,44.9
2023-04-20T09:01:55.165Z,44.9
2023-04-20T09:03:38.544Z,44.9
2023-04-20T09:05:21.955Z,44.9
2023-04-20T09:07:05.356Z,44.9
2023-04-20T09:08:48.758Z,45
2023-04-20T09:10:32.141Z,45
2023-04-20T09:12:15.533Z,45.1
2023-04-20T09:17:24.777Z,45.2
2023-04-20T09:19:08.172Z,45.2
2023-04-20T09:20:51.568Z,45.2
2023-04-20T09:22:34.989Z,45.2
2023-04-20T09:24:18.372Z,45.2
2023-04-20T09:26:01.771Z,45.2
2023-04-20T09:27:45.161Z,45.2
2023-04-20T09:29:28.544Z,45.2
2023-04-20T09:31:11.947Z,45.3
2023-04-20T09:32:55.673Z,45.3
2023-04-20T09:34:39.032Z,45.3
2023-04-20T09:36:22.444Z,45.3
2023-04-20T09:38:05.832Z,45.3
2023-04-20T09:39:49.242Z,45.3
2023-04-20T09:41:32.639Z,45.3
2023-04-20T09:43:16.024Z,45.4
2023-04-20T09:44:59.415Z,45.5
2023-04-20T09:50:08.664Z,45.5
2023-04-20T09:51:52.062Z,45.5
2023-04-20T09:53:35.461Z,45.7
2023-04-20T09:55:18.845Z,45.7
2023-04-20T09:57:02.257Z,46.1
2023-04-20T09:58:45.642Z,46.6
2023-04-20T10:00:29.039Z,46.5
2023-04-20T10:02:12.442Z,46.3
2023-04-20T10:05:38.913Z,46.3
2023-04-20T10:07:22.291Z,46.4
2023-04-20T10:09:05.709Z,46.4
2023-04-20T10:10:49.097Z,46.7
2023-04-20T10:12:32.590Z,46.8
2023-04-20T10:14:15.890Z,46.6
2023-04-20T10:15:59.284Z,46.5
2023-04-20T10:17:42.701Z,46.3
2023-04-20T10:19:26.369Z,46.1
2023-04-20T10:21:09.772Z,46.4
2023-04-20T10:22:53.189Z,46.4
2023-04-20T10:24:36.591Z,46.7
2023-04-20T10:26:19.972Z,46.8
2023-04-20T10:28:03.384Z,47.1
2023-04-20T10:29:46.793Z,47.3
2023-04-20T10:31:33.947Z,47.5
2023-04-20T10:34:56.644Z,47.8
2023-04-20T10:36:40.032Z,47.6
2023-04-20T10:38:23.472Z,47.3
2023-04-20T10:40:06.832Z,47.2
2023-04-20T10:41:50.247Z,47.2
2023-04-20T10:43:33.664Z,47.2
2023-04-20T10:45:17.035Z,47.2
2023-04-20T10:47:00.401Z,47.3
2023-04-20T10:48:44.109Z,47.3
2023-04-20T10:50:27.494Z,47.4
2023-04-20T10:52:10.912Z,47.4
2023-04-20T10:53:54.302Z,47.4
2023-04-20T10:55:37.695Z,47.4
2023-04-20T10:57:21.146Z,47.5
2023-04-20T10:59:04.515Z,47.5
2023-04-20T11:00:47.904Z,47.6
2023-04-20T11:04:14.367Z,47.6
2023-04-20T11:05:57.756Z,47.7
2023-04-20T11:07:41.156Z,47.7
2023-04-20T11:09:24.545Z,47.7
2023-04-20T11:11:07.959Z,47.8
2023-04-20T11:12:51.359Z,47.9
2023-04-20T11:14:34.817Z,48
2023-04-20T11:16:18.146Z,48.1
2023-04-20T11:19:44.658Z,48.3
2023-04-20T11:21:27.994Z,48.4
2023-04-20T11:23:11.407Z,48.6
2023-04-20T11:24:54.830Z,48.6
2023-04-20T11:26:38.189Z,48.5
2023-04-20T11:28:21.583Z,48.7
2023-04-20T11:30:05.027Z,48.6
2023-04-20T11:31:48.378Z,48.9
2023-04-20T11:36:57.638Z,49.2
2023-04-20T11:38:41.010Z,49.3
2023-04-20T11:40:24.458Z,49
2023-04-20T11:42:07.813Z,48.9
2023-04-20T11:43:51.195Z,48.9
2023-04-20T11:45:34.604Z,48.9
2023-04-20T11:47:17.999Z,48.9
2023-04-20T11:49:01.415Z,49
2023-04-20T11:52:27.871Z,49.3
2023-04-20T11:54:11.265Z,49.3
2023-04-20T11:55:54.667Z,49.3
2023-04-20T11:57:38.095Z,49.6
2023-04-20T11:59:21.531Z,49.7
2023-04-20T12:01:04.874Z,49.5
2023-04-20T12:02:48.243Z,49.4
2023-04-20T12:04:31.771Z,49.5
2023-04-20T12:07:58.152Z,49.4
2023-04-20T12:09:41.640Z,49.5
2023-04-20T12:11:25.056Z,49.5
2023-04-20T12:13:08.419Z,49.5
2023-04-20T12:14:51.749Z,49.5
2023-04-20T12:16:35.237Z,49.5
2023-04-20T12:18:18.492Z,49.5
2023-04-20T12:20:02.003Z,49.6
2023-04-20T12:23:28.449Z,49.6
2023-04-20T12:25:11.895Z,49.6
2023-04-20T12:26:55.155Z,49.6
2023-04-20T12:28:38.696Z,49.7
2023-04-20T12:30:21.957Z,49.7
2023-04-20T12:32:05.349Z,49.7
2023-04-20T12:33:48.832Z,49.7
2023-04-20T12:35:32.193Z,49.8
2023-04-20T12:38:58.614Z,49.8
2023-04-20T12:40:42.010Z,49.9
2023-04-20T12:42:25.420Z,49.9
2023-04-20T12:44:08.800Z,49.9
2023-04-20T12:45:52.202Z,49.9
2023-04-20T12:47:35.617Z,50
2023-04-20T12:49:19.044Z,50
2023-04-20T12:51:02.392Z,50
2023-04-20T12:54:28.869Z,50
2023-04-20T12:56:12.238Z,50
2023-04-20T12:57:55.649Z,50.1
2023-04-20T12:59:39.057Z,50.1
2023-04-20T13:01:22.447Z,50.1
2023-04-20T13:03:05.833Z,50.1
2023-04-20T13:04:49.228Z,50.1
2023-04-20T13:06:32.636Z,50.2
2023-04-20T13:09:59.129Z,50.2
2023-04-20T13:11:42.504Z,50.3
2023-04-20T13:13:25.902Z,50.3
2023-04-20T13:15:09.342Z,50.3
2023-04-20T13:16:52.695Z,50.4
2023-04-20T13:18:36.104Z,50.4
2023-04-20T13:20:19.493Z,50.5
2023-04-20T13:22:02.864Z,50.5
2023-04-20T13:25:29.481Z,50.5
2023-04-20T13:27:12.833Z,50.6
2023-04-20T13:28:56.202Z,50.6
2023-04-20T13:30:39.546Z,50.6
2023-04-20T13:32:22.938Z,50.6
2023-04-20T13:34:06.344Z,50.7
2023-04-20T13:35:49.727Z,50.6
2023-04-20T13:39:16.208Z,50.7
2023-04-20T13:40:59.602Z,50.7
2023-04-20T13:42:42.991Z,50.7
2023-04-20T13:44:26.410Z,50.7
2023-04-20T13:46:09.823Z,50.7
2023-04-20T13:47:53.184Z,50.8
2023-04-20T13:49:36.596Z,50.8
2023-04-20T13:51:20.073Z,50.8
2023-04-20T13:53:03.672Z,50.8
2023-04-20T13:54:47.087Z,50.8
2023-04-20T13:56:30.478Z,50.9
2023-04-20T13:58:13.888Z,50.9
2023-04-20T13:59:57.324Z,50.8
2023-04-20T14:01:40.678Z,50.9
2023-04-20T14:03:24.105Z,50.9
2023-04-20T14:08:33.303Z,50.9
2023-04-20T14:10:16.699Z,50.9
2023-04-20T14:12:00.133Z,50.9
2023-04-20T14:13:43.482Z,50.9
2023-04-20T14:15:26.946Z,50.9
2023-04-20T14:17:10.309Z,50.9
2023-04-20T14:18:53.790Z,50.9
2023-04-20T14:20:37.127Z,50.9
2023-04-20T14:22:20.804Z,50.9
2023-04-20T14:24:04.177Z,51
2023-04-20T14:25:47.620Z,51
2023-04-20T14:27:31.025Z,51
2023-04-20T14:29:14.450Z,51.3
2023-04-20T14:30:57.777Z,51.1
2023-04-20T14:32:41.217Z,51.1
2023-04-20T14:34:24.709Z,51.1
2023-04-20T14:37:51.027Z,51
2023-04-20T14:39:34.564Z,50.9
2023-04-20T14:41:17.824Z,50.9
2023-04-20T14:43:01.280Z,51
2023-04-20T14:44:44.621Z,51
2023-04-20T14:46:28.020Z,50.9
2023-04-20T14:48:11.410Z,50.9
2023-04-20T14:53:20.736Z,51.1
2023-04-20T14:55:04.104Z,50.8
2023-04-20T14:56:47.442Z,50.8
2023-04-20T14:58:30.933Z,50.9
2023-04-20T15:00:14.262Z,51.3
2023-04-20T15:01:57.650Z,51
2023-04-20T15:03:41.048Z,51.1
2023-04-20T15:08:50.299Z,51.6
2023-04-20T15:12:17.218Z,52.3
2023-04-20T15:14:00.594Z,52.1
2023-04-20T15:15:43.872Z,52
2023-04-20T15:17:27.253Z,52.3
2023-04-20T15:19:10.679Z,52.1
2023-04-20T15:24:19.942Z,51.8
2023-04-20T15:26:03.375Z,51.8
2023-04-20T15:27:46.821Z,51.8
2023-04-20T15:29:30.083Z,51.8
2023-04-20T15:31:13.629Z,51.8
2023-04-20T15:32:56.922Z,51.8
2023-04-20T15:34:40.266Z,51.8
2023-04-20T15:39:49.542Z,51.8
2023-04-20T15:41:32.917Z,51.8
2023-04-20T15:43:16.310Z,51.8
2023-04-20T15:44:59.765Z,51.8
2023-04-20T15:46:43.221Z,51.8
2023-04-20T15:50:09.913Z,51.8
2023-04-20T15:51:53.340Z,51.8
2023-04-20T15:53:37.013Z,51.8
2023-04-20T15:55:20.402Z,51.8
2023-04-20T15:57:03.803Z,51.8
2023-04-20T15:58:47.214Z,51.8
2023-04-20T16:00:30.761Z,51.8
2023-04-20T16:02:13.997Z,51.8
2023-04-20T16:03:57.470Z,51.8
2023-04-20T16:05:40.861Z,51.8
2023-04-20T16:09:07.303Z,51.8
2023-04-20T16:10:50.719Z,51.8
2023-04-20T16:12:34.104Z,51.8
2023-04-20T16:14:17.438Z,51.8
2023-04-20T16:16:00.901Z,51.8
2023-04-20T16:17:44.236Z,51.8
2023-04-20T16:19:27.755Z,51.9
2023-04-20T16:24:37.044Z,51.9
2023-04-20T16:26:20.290Z,51.9
2023-04-20T16:28:03.688Z,51.9
2023-04-20T16:29:47.158Z,51.9
2023-04-20T16:31:30.500Z,51.9
2023-04-20T16:33:13.937Z,51.9
2023-04-20T16:34:57.248Z,51.9
2023-04-20T16:36:40.679Z,51.9
2023-04-20T16:40:07.171Z,51.9
2023-04-20T16:41:50.528Z,51.9
2023-04-20T16:43:33.949Z,51.9
2023-04-20T16:45:17.315Z,51.9
2023-04-20T16:47:00.779Z,51.9
2023-04-20T16:48:44.180Z,51.9
2023-04-20T16:50:27.512Z,51.9
2023-04-20T16:52:10.929Z,51.9
2023-04-20T16:55:37.377Z,51.9
2023-04-20T16:57:20.783Z,51.9
2023-04-20T16:59:04.223Z,51.9
2023-04-20T17:00:47.592Z,51.9
2023-04-20T17:02:30.973Z,51.9
2023-04-20T17:05:57.829Z,51.9
2023-04-20T17:07:41.298Z,51.9
2023-04-20T17:09:24.854Z,51.9
2023-04-20T17:11:08.264Z,52
2023-04-20T17:12:51.662Z,52
2023-04-20T17:14:35.074Z,52
2023-04-20T17:16:18.496Z,52.1
2023-04-20T17:18:01.845Z,52
2023-04-20T17:19:45.245Z,52.2
2023-04-20T17:21:28.717Z,52.2
2023-04-20T17:24:55.100Z,52.3
2023-04-20T17:26:38.600Z,52.3
2023-04-20T17:28:21.919Z,52.3
2023-04-20T17:30:05.304Z,52.3
2023-04-20T17:31:48.705Z,52.3
2023-04-20T17:33:32.094Z,52.2
2023-04-20T17:35:15.540Z,52.2
2023-04-20T17:36:58.980Z,52.2
2023-04-20T17:40:25.358Z,52.3
2023-04-20T17:42:08.759Z,52.2
2023-04-20T17:43:52.201Z,52.2
2023-04-20T17:45:35.573Z,52.2
2023-04-20T17:47:18.994Z,52.2
2023-04-20T17:49:02.419Z,52.2
2023-04-20T17:50:45.743Z,52.1
2023-04-20T17:52:29.142Z,52.1
2023-04-20T17:54:12.838Z,52.1
2023-04-20T17:55:56.256Z,52.1
2023-04-20T17:57:39.654Z,52.1
2023-04-20T17:59:23.030Z,52.1
2023-04-20T18:01:06.439Z,52.1
2023-04-20T18:02:49.821Z,52.1
2023-04-20T18:04:33.207Z,52
2023-04-20T18:06:16.616Z,52
2023-04-20T18:11:25.868Z,52.1
2023-04-20T18:13:09.366Z,52.2
2023-04-20T18:14:52.656Z,52.3
2023-04-20T18:16:36.070Z,52.3
2023-04-20T18:18:19.460Z,52.2
2023-04-20T18:20:02.858Z,52.1
2023-04-20T18:21:46.247Z,52.1
2023-04-20T18:23:29.653Z,52.1
2023-04-20T18:26:56.136Z,52.1
2023-04-20T18:28:39.527Z,52.1
2023-04-20T18:30:22.924Z,52.1
2023-04-20T18:32:06.433Z,52.1
2023-04-20T18:33:49.706Z,52.1
2023-04-20T18:35:33.108Z,52.1
2023-04-20T18:37:16.554Z,52.1
2023-04-20T18:38:59.908Z,52.1
2023-04-20T18:42:26.393Z,52
2023-04-20T18:44:09.806Z,52
2023-04-20T18:45:53.295Z,52
2023-04-20T18:47:36.572Z,52
2023-04-20T18:49:19.978Z,52
2023-04-20T18:51:03.425Z,52
2023-04-20T18:52:46.763Z,52
2023-04-20T18:54:30.147Z,52
2023-04-20T18:57:56.653Z,52
2023-04-20T18:59:40.042Z,52
2023-04-20T19:01:23.458Z,52
2023-04-20T19:03:06.811Z,52
2023-04-20T19:04:50.205Z,52
2023-04-20T19:06:33.608Z,52
2023-04-20T19:08:17.022Z,52
2023-04-20T19:10:00.417Z,52
2023-04-20T19:13:26.889Z,52
2023-04-20T19:15:10.326Z,52
2023-04-20T19:16:53.675Z,52
2023-04-20T19:18:37.109Z,52
2023-04-20T19:20:20.493Z,52
2023-04-20T19:22:04.007Z,51.9
2023-04-20T19:23:47.261Z,51.9
2023-04-20T19:25:30.683Z,51.9
2023-04-20T19:28:57.179Z,51.9
2023-04-20T19:30:40.531Z,51.9
2023-04-20T19:32:23.944Z,51.9
2023-04-20T19:34:07.320Z,51.9
2023-04-20T19:35:50.721Z,51.9
2023-04-20T19:37:34.117Z,51.9
2023-04-20T19:39:17.565Z,51.9
2023-04-20T19:41:01.044Z,51.9
2023-04-20T19:44:27.450Z,52
2023-04-20T19:46:10.768Z,52
2023-04-20T19:47:54.212Z,52
2023-04-20T19:49:37.590Z,51.9
2023-04-20T19:51:20.969Z,51.9
2023-04-20T19:53:04.396Z,51.8
2023-04-20T19:54:47.748Z,51.7
2023-04-20T19:59:57.051Z,51.3
2023-04-20T20:01:40.459Z,51.3
2023-04-20T20:03:23.855Z,51.2
2023-04-20T20:05:07.216Z,51.2
2023-04-20T20:06:50.603Z,51.2
2023-04-20T20:08:33.981Z,51.2
2023-04-20T20:10:17.377Z,51.2
2023-04-20T20:12:00.769Z,51.2
2023-04-20T20:15:27.460Z,51.2
2023-04-20T20:17:10.902Z,51.2
2023-04-20T20:18:54.166Z,51.2
2023-04-20T20:20:37.476Z,51.2
2023-04-20T20:22:20.913Z,51.2
2023-04-20T20:24:04.268Z,51.3
2023-04-20T20:25:47.688Z,51.3
2023-04-20T20:27:31.043Z,51.3
2023-04-20T20:30:57.555Z,51.2
2023-04-20T20:32:40.918Z,51.2
2023-04-20T20:34:24.295Z,51.3
2023-04-20T20:36:07.752Z,51.3
2023-04-20T20:37:51.115Z,51.3
2023-04-20T20:39:34.473Z,51.3
2023-04-20T20:41:17.986Z,51.3
2023-04-20T20:43:01.270Z,51.3
2023-04-20T20:44:44.980Z,51.2
2023-04-20T20:46:28.545Z,51.2
2023-04-20T20:48:11.835Z,51.2
2023-04-20T20:49:55.196Z,51.2
2023-04-20T20:51:38.557Z,51.3
2023-04-20T20:53:21.966Z,51.3
2023-04-20T20:55:05.369Z,51.3
2023-04-20T20:56:48.758Z,51.3
2023-04-20T21:00:15.232Z,51.3
2023-04-20T21:01:58.651Z,51.3
2023-04-20T21:03:42.024Z,51.3
2023-04-20T21:05:25.473Z,51.3
2023-04-20T21:07:08.808Z,51.3
2023-04-20T21:08:52.203Z,51.3
2023-04-20T21:10:35.629Z,51.3
2023-04-20T21:12:18.996Z,51.3
2023-04-20T21:15:45.479Z,51.3
2023-04-20T21:17:28.957Z,51.3
2023-04-20T21:19:12.278Z,51.3
2023-04-20T21:20:55.677Z,51.3
2023-04-20T21:22:39.063Z,51.3
2023-04-20T21:24:22.455Z,51.3
2023-04-20T21:26:05.876Z,51.3
2023-04-20T21:27:49.269Z,51.3
2023-04-20T21:32:58.519Z,51.3
2023-04-20T21:34:41.907Z,51.3
2023-04-20T21:36:25.296Z,51.3
2023-04-20T21:38:08.693Z,51.3
2023-04-20T21:39:52.079Z,51.2
2023-04-20T21:41:35.512Z,51.3
2023-04-20T21:43:18.879Z,51.4
2023-04-20T21:45:02.279Z,51.3
2023-04-20T21:48:28.758Z,51.3
2023-04-20T21:50:12.153Z,51.3
2023-04-20T21:51:55.545Z,51.3
2023-04-20T21:53:38.931Z,51.3
2023-04-20T21:55:22.341Z,51.3
2023-04-20T21:57:05.745Z,51.3
2023-04-20T21:58:49.134Z,51.3
2023-04-20T22:00:32.522Z,51.3
2023-04-20T22:03:59.000Z,51.3
2023-04-20T22:05:42.434Z,51.5
2023-04-20T22:07:25.799Z,51.5
2023-04-20T22:09:09.199Z,51.4
2023-04-20T22:10:52.600Z,51.4
2023-04-20T22:12:35.998Z,51.4
2023-04-20T22:14:19.393Z,51.2
2023-04-20T22:16:02.773Z,50.9
2023-04-20T22:21:12.068Z,50.6
2023-04-20T22:22:55.512Z,50.4
2023-04-20T22:24:38.839Z,50.1
2023-04-20T22:26:22.221Z,49.9
2023-04-20T22:28:05.647Z,49.8
2023-04-20T22:29:49.028Z,49.7
2023-04-20T22:31:32.395Z,49.7
2023-04-20T22:33:15.785Z,49.7
2023-04-20T22:34:59.197Z,49.7
2023-04-20T22:38:25.672Z,49.7
2023-04-20T22:40:09.065Z,49.8
2023-04-20T22:41:52.468Z,49.8
2023-04-20T22:43:35.900Z,49.8
2023-04-20T22:45:19.237Z,49.8
2023-04-20T22:47:02.651Z,49.8
2023-04-20T22:50:29.454Z,49.9
2023-04-20T22:53:55.907Z,49.9
2023-04-20T22:55:39.359Z,49.8
2023-04-20T22:57:22.752Z,49.9
2023-04-20T22:59:06.118Z,49.9
2023-04-20T23:00:49.491Z,50
2023-04-20T23:02:32.897Z,50
2023-04-20T23:04:16.303Z,50
2023-04-20T23:05:59.704Z,50
2023-04-20T23:11:08.930Z,50.1
2023-04-20T23:12:52.422Z,50.1
2023-04-20T23:14:35.761Z,50
2023-04-20T23:16:19.113Z,50
2023-04-20T23:18:02.526Z,50
2023-04-20T23:19:45.918Z,50.1
2023-04-20T23:21:29.328Z,50
2023-04-20T23:23:12.735Z,50
2023-04-20T23:26:39.181Z,50
2023-04-20T23:28:22.576Z,50
2023-04-20T23:30:05.998Z,50
2023-04-20T23:31:49.378Z,50
2023-04-20T23:33:32.771Z,50
2023-04-20T23:35:16.165Z,50
2023-04-20T23:36:59.621Z,50
2023-04-20T23:38:42.945Z,50
2023-04-20T23:43:52.210Z,50
2023-04-20T23:45:35.584Z,50
2023-04-20T23:47:19.006Z,50
2023-04-20T23:49:02.390Z,50
2023-04-20T23:50:45.787Z,49.9
2023-04-20T23:52:29.188Z,50
2023-04-20T23:54:12.574Z,49.9
2023-04-20T23:55:55.967Z,49.9
